Holland, Missouri
Current Conditions -  °F | °C
As of 1:53 PM on Sunday 21 Dec 2014 (Local Time) from KHKA Reporting Station
Clear Clear  
Wind Chill: 51°   Ceiling: Unl
Heat Index: 51°   Visibility: 10mi
Dew Point: 35°   Wind: 7mph
Humidity: 54%   Direction: 120°ESE
Pressure: 30.07"   Gusts: NA
Location:  36.06°N, 89.87°W
Report Text: KHKA 211953Z AUTO 12006KT 10SM CLR 11/02 A3007 RMK AO2 SLP184 T01060017
Loading
Personal Weather Stations






























Interactive Weather Map New forecast layout! Learn more

10-Day Weather Forecast

Advertisements
Track Severe Weather on mobile